Juniata, Nebraska
Current Conditions -  °F | °C
As of 12:53 AM on Friday 28 Nov 2014 (Local Time) from KHSI Reporting Station
Clear Clear  
Wind Chill: -5°   Ceiling: Unl
Heat Index: -2°   Visibility: 10mi
Dew Point: -8°   Wind: 6mph
Humidity: 64%   Direction: 180°S
Pressure: 29.96"   Gusts: NA
Location:  40.59°N, 98.51°W
Report Text: KHSI 280653Z AUTO 18005KT 10SM CLR M02/M08 A2996 RMK AO2 SLP163 T10171078
Loading
Personal Weather Stations






























Interactive Weather Map New forecast layout! Learn more

10-Day Weather Forecast

Advertisements
Track Severe Weather on mobile